Time;durP1;ratioP1;P1;durP2;ratioP2;P2;SDS_P1;SDS_P2;PMS_P1;PMS_P2;Temp;Humidity;BMP_temperature;BMP_pressure;BME280_temperature;BME280_humidity;BME280_pressure;Samples;Min_cycle;Max_cycle;Signal;HPM_P1;HPM_P2
2022/05/10 00:00:21;;;;;;;7.47;6.87;;;18.60;69.70;;;-142.21;100.00;112049.66;5055371;28;20487;-78
2022/05/10 00:02:54;;;;;;;7.13;6.50;;;18.50;69.50;;;-142.21;100.00;112049.66;5055244;28;20498;-80
2022/05/10 00:05:28;;;;;;;7.57;6.77;;;18.40;69.20;;;-142.21;100.00;112049.66;5056074;28;20464;-77
2022/05/10 00:07:56;;;;;;;7.47;6.87;;;18.30;69.10;;;-142.21;100.00;112049.66;5056006;28;20531;-77
2022/05/10 00:10:24;;;;;;;7.83;6.90;;;18.30;69.40;;;-142.21;100.00;112049.66;5055697;28;20447;-79
2022/05/10 00:12:52;;;;;;;6.50;5.90;;;18.30;69.30;;;-142.21;100.00;112049.66;5055235;28;20551;-78
2022/05/10 00:15:21;;;;;;;6.77;6.17;;;18.30;69.50;;;-142.21;100.00;112049.66;5055668;28;20867;-79
2022/05/10 00:17:49;;;;;;;10.47;6.70;;;18.30;69.40;;;-142.21;100.00;112049.66;5055301;28;21561;-80
2022/05/10 00:20:22;;;;;;;7.40;6.70;;;18.30;69.50;;;-142.21;100.00;112049.66;5055608;28;20527;-80
2022/05/10 00:22:50;;;;;;;7.23;6.57;;;18.30;70.00;;;-142.21;100.00;112049.66;5054215;28;20456;-80
2022/05/10 00:25:23;;;;;;;8.00;6.50;;;18.20;69.20;;;-142.21;100.00;112049.66;5055211;28;20539;-80
2022/05/10 00:27:50;;;;;;;6.73;6.13;;;18.20;69.80;;;-142.21;100.00;112049.66;5055077;28;20531;-79
2022/05/10 00:30:20;;;;;;;7.17;6.63;;;18.20;70.50;;;-142.21;100.00;112049.66;5055365;28;20455;-78
2022/05/10 00:32:48;;;;;;;7.77;6.97;;;18.20;69.70;;;-142.21;100.00;112049.66;5054608;28;20476;-77
2022/05/10 00:35:20;;;;;;;6.63;6.03;;;18.20;69.70;;;-142.21;100.00;112049.66;5055322;28;20472;-79
2022/05/10 00:37:50;;;;;;;7.37;6.37;;;18.10;69.20;;;-142.21;100.00;112049.66;5054888;28;20264;-77
2022/05/10 00:40:22;;;;;;;6.87;6.27;;;18.10;69.00;;;-142.21;100.00;112049.66;5055118;28;20245;-77
2022/05/10 00:42:58;;;;;;;6.93;6.33;;;18.00;69.20;;;-142.21;100.00;112049.66;5054790;28;20515;-77
2022/05/10 00:45:40;;;;;;;6.63;6.03;;;18.00;69.30;;;-142.21;100.00;112049.66;5054737;28;20567;-77
2022/05/10 00:48:18;;;;;;;10.20;6.97;;;18.10;70.30;;;-142.21;100.00;112049.66;5054953;28;20936;-78
2022/05/10 00:50:52;;;;;;;7.27;6.57;;;18.00;69.70;;;-142.21;100.00;112049.66;5054621;28;20456;-78
2022/05/10 00:53:26;;;;;;;7.50;6.83;;;18.00;69.40;;;-142.21;100.00;112049.66;5054948;28;20451;-79
2022/05/10 00:56:06;;;;;;;7.47;6.73;;;18.00;69.20;;;-142.21;100.00;112049.66;5054398;28;20497;-80
2022/05/10 00:58:46;;;;;;;7.70;6.90;;;18.00;70.20;;;-142.21;100.00;112049.66;5033960;28;20442;-78
2022/05/10 01:01:24;;;;;;;9.17;7.07;;;18.00;70.10;;;-142.21;100.00;112049.66;5040520;28;20467;-79
2022/05/10 01:04:02;;;;;;;6.90;6.20;;;18.00;69.10;;;-142.21;100.00;112049.66;5034241;28;20424;-80
2022/05/10 01:06:37;;;;;;;8.03;6.73;;;18.00;69.60;;;-142.21;100.00;112049.66;5035124;28;20453;-78
2022/05/10 01:09:13;;;;;;;6.93;6.33;;;17.90;69.70;;;-142.21;100.00;112049.66;5034567;28;20460;-78
2022/05/10 01:11:47;;;;;;;7.03;6.37;;;17.80;70.40;;;-142.21;100.00;112049.66;5042637;28;20467;-77
2022/05/10 01:14:23;;;;;;;7.10;6.40;;;17.80;70.20;;;-142.21;100.00;112049.66;5054315;28;20455;-78
2022/05/10 01:16:52;;;;;;;6.77;6.17;;;17.90;69.40;;;-142.21;100.00;112049.66;5052374;28;20503;-77
2022/05/10 01:19:20;;;;;;;6.87;6.27;;;17.80;69.00;;;-142.21;100.00;112049.66;5034593;28;20584;-77
2022/05/10 01:22:08;;;;;;;7.20;6.53;;;17.70;69.60;;;-142.21;100.00;112049.66;5033748;28;20480;-78
2022/05/10 01:24:57;;;;;;;7.27;6.50;;;17.70;69.90;;;-142.21;100.00;112049.66;5034270;28;20474;-77
2022/05/10 01:27:48;;;;;;;6.83;6.23;;;17.70;70.30;;;-142.21;100.00;112049.66;5033906;28;20472;-78
2022/05/10 01:30:20;;;;;;;6.40;5.80;;;17.70;72.00;;;-142.21;100.00;112049.66;5034669;28;20468;-78
2022/05/10 01:36:03;;;;;;;7.10;6.40;;;17.70;69.30;;;-142.21;100.00;112049.66;5053010;28;20412;-78
2022/05/10 01:38:48;;;;;;;6.83;6.27;;;17.70;70.20;;;-142.21;100.00;112049.66;5040720;28;20555;-78
2022/05/10 01:41:31;;;;;;;6.83;6.13;;;17.70;71.10;;;-142.21;100.00;112049.66;5033932;28;20497;-78
2022/05/10 01:44:10;;;;;;;7.03;6.33;;;17.70;70.20;;;-142.21;100.00;112049.66;5032998;28;20476;-79
2022/05/10 01:46:39;;;;;;;7.57;6.87;;;17.60;69.90;;;-142.21;100.00;112049.66;5033830;28;20541;-79
2022/05/10 01:49:25;;;;;;;6.53;5.93;;;17.60;68.90;;;-142.21;100.00;112049.66;5033759;28;20533;-77
2022/05/10 01:52:00;;;;;;;6.60;5.70;;;17.60;71.30;;;-142.21;100.00;112049.66;5033649;28;20465;-78
2022/05/10 01:55:18;;;;;;;6.60;5.87;;;17.60;70.00;;;-142.21;100.00;112049.66;5033910;28;20469;-80
2022/05/10 01:57:45;;;;;;;9.93;6.57;;;17.70;69.70;;;-142.21;100.00;112049.66;5033178;28;21008;-81
2022/05/10 02:00:18;;;;;;;7.30;6.60;;;17.60;69.50;;;-142.21;100.00;112049.66;5033741;28;20524;-79
2022/05/10 02:02:59;;;;;;;9.00;6.13;;;17.60;69.20;;;-142.21;100.00;112049.66;5053617;28;20464;-77
2022/05/10 02:05:35;;;;;;;6.50;6.00;;;17.70;69.80;;;-142.21;100.00;112049.66;5053463;28;20481;-78
2022/05/10 02:08:15;;;;;;;7.10;6.40;;;17.40;69.30;;;-142.21;100.00;112049.66;5053616;28;20438;-77
2022/05/10 02:10:51;;;;;;;8.23;6.20;;;17.40;69.90;;;-142.21;100.00;112049.66;5052613;28;20428;-78
2022/05/10 02:13:27;;;;;;;7.00;6.30;;;17.40;70.40;;;-142.21;100.00;112049.66;5053399;28;20499;-78
2022/05/10 02:16:02;;;;;;;6.83;5.93;;;17.40;69.70;;;-142.21;100.00;112049.66;5052877;28;20526;-79
2022/05/10 02:18:41;;;;;;;7.03;5.83;;;17.40;69.50;;;-142.21;100.00;112049.66;5053355;28;20811;-78
2022/05/10 02:21:17;;;;;;;6.83;6.23;;;17.30;69.80;;;-142.21;100.00;112049.66;5052977;28;20468;-78
2022/05/10 02:23:54;;;;;;;6.83;6.13;;;17.30;70.10;;;-142.21;100.00;112049.66;5053041;28;20443;-80
2022/05/10 02:26:31;;;;;;;6.70;6.10;;;17.30;70.70;;;-142.21;100.00;112049.66;5052890;28;20855;-78
2022/05/10 02:29:11;;;;;;;8.37;6.20;;;17.30;70.20;;;-142.21;100.00;112049.66;5052754;28;20824;-79
2022/05/10 02:34:38;;;;;;;6.37;5.77;;;17.20;70.10;;;-142.21;100.00;112049.66;5053161;28;20412;-78
2022/05/10 02:37:06;;;;;;;6.80;6.17;;;17.30;69.30;;;-142.21;100.00;112049.66;5053107;28;20837;-77
2022/05/10 02:39:33;;;;;;;7.03;6.33;;;17.40;68.60;;;-142.21;100.00;112049.66;5052747;28;20575;-81
2022/05/10 02:42:02;;;;;;;7.47;6.73;;;17.40;68.60;;;-142.21;100.00;112049.66;5052882;28;20857;-78
2022/05/10 02:44:30;;;;;;;7.33;6.63;;;17.50;68.80;;;-142.21;100.00;112049.66;5052679;28;20555;-77
2022/05/10 02:46:57;;;;;;;7.27;6.57;;;17.40;69.10;;;-142.21;100.00;112049.66;5052348;28;20527;-77
2022/05/10 02:49:24;;;;;;;7.00;6.30;;;17.50;68.70;;;-142.21;100.00;112049.66;5052498;28;20532;-77
2022/05/10 02:51:54;;;;;;;7.90;7.10;;;17.40;69.10;;;-142.21;100.00;112049.66;5052428;28;20464;-77
2022/05/10 02:54:21;;;;;;;7.40;6.70;;;17.40;69.20;;;-142.21;100.00;112049.66;5052315;28;20444;-78
2022/05/10 02:56:49;;;;;;;8.00;6.30;;;17.30;68.80;;;-142.21;100.00;112049.66;5052171;28;20448;-79
2022/05/10 02:59:21;;;;;;;7.23;6.43;;;17.30;69.80;;;-142.21;100.00;112049.66;5052844;28;20516;-78
2022/05/10 03:01:57;;;;;;;6.83;6.23;;;17.30;69.90;;;-142.21;100.00;112049.66;5052379;28;20921;-77
2022/05/10 03:04:33;;;;;;;7.13;6.50;;;17.20;69.70;;;-142.21;100.00;112049.66;5052630;28;20505;-78
2022/05/10 03:07:04;;;;;;;7.43;6.73;;;17.20;68.80;;;-142.21;100.00;112049.66;5052138;28;20416;-81
2022/05/10 03:09:32;;;;;;;6.73;6.13;;;17.20;68.80;;;-142.21;100.00;112049.66;5052612;28;20475;-80
2022/05/10 03:11:59;;;;;;;7.13;6.43;;;17.10;69.20;;;-142.21;100.00;112049.66;5051983;28;21030;-79
2022/05/10 03:14:26;;;;;;;7.97;6.43;;;17.10;68.40;;;-142.21;100.00;112049.66;5052477;28;20548;-78
2022/05/10 03:16:56;;;;;;;9.03;7.00;;;17.00;68.80;;;-142.21;100.00;112049.66;5052340;28;20468;-78
2022/05/10 03:19:23;;;;;;;7.20;6.50;;;17.00;69.10;;;-142.21;100.00;112049.66;5052514;28;20532;-79
2022/05/10 03:21:51;;;;;;;7.70;7.00;;;17.00;69.10;;;-142.21;100.00;112049.66;5052191;28;20894;-78
2022/05/10 03:24:19;;;;;;;8.03;6.50;;;17.00;69.60;;;-142.21;100.00;112049.66;5052289;28;20499;-78
2022/05/10 03:26:49;;;;;;;6.27;5.77;;;17.00;69.30;;;-142.21;100.00;112049.66;5051968;28;20523;-80
2022/05/10 03:29:16;;;;;;;9.87;6.53;;;17.00;69.50;;;-142.21;100.00;112049.66;5052484;28;20468;-79
2022/05/10 03:31:44;;;;;;;7.13;6.43;;;16.90;69.50;;;-142.21;100.00;112049.66;5051863;28;20452;-80
2022/05/10 03:36:57;;;;;;;7.03;6.43;;;16.90;69.80;;;-142.21;100.00;112049.66;5051539;28;20428;-79
2022/05/10 03:39:26;;;;;;;7.03;6.30;;;16.70;69.40;;;-142.21;100.00;112049.66;5051872;28;20464;-78
2022/05/10 03:41:53;;;;;;;7.30;6.70;;;16.60;69.70;;;-142.21;100.00;112049.66;5031928;28;20537;-78
2022/05/10 03:44:20;;;;;;;6.63;6.03;;;16.50;70.60;;;-142.21;100.00;112049.66;5032466;28;20885;-78
2022/05/10 03:46:48;;;;;;;7.17;6.57;;;16.60;70.40;;;-142.21;100.00;112049.66;5031793;28;20413;-78
2022/05/10 03:49:19;;;;;;;6.47;5.87;;;16.60;69.80;;;-142.21;100.00;112049.66;5032123;28;20528;-78
2022/05/10 03:51:46;;;;;;;6.53;5.93;;;16.60;69.80;;;-142.21;100.00;112049.66;5031479;28;20472;-79
2022/05/10 03:54:13;;;;;;;7.20;6.50;;;16.50;69.50;;;-142.21;100.00;112049.66;5032070;28;20533;-78
2022/05/10 03:56:42;;;;;;;7.57;6.90;;;16.50;69.30;;;-142.21;100.00;112049.66;5032031;28;20465;-78
2022/05/10 03:59:09;;;;;;;7.57;6.60;;;16.60;70.10;;;-142.21;100.00;112049.66;5032022;28;20918;-78
2022/05/10 04:01:36;;;;;;;7.87;7.07;;;16.60;70.40;;;-142.21;100.00;112049.66;5031708;28;20850;-78
2022/05/10 04:04:03;;;;;;;6.57;5.97;;;16.60;70.70;;;-142.21;100.00;112049.66;5031483;28;20533;-80
2022/05/10 04:06:31;;;;;;;7.30;6.60;;;16.60;69.90;;;-142.21;100.00;112049.66;5032125;28;20477;-78
2022/05/10 04:09:01;;;;;;;8.60;7.77;;;16.50;69.60;;;-142.21;100.00;112049.66;5034827;28;20437;-79
2022/05/10 04:11:29;;;;;;;8.97;7.70;;;16.60;69.50;;;-142.21;100.00;112049.66;5035593;28;20520;-78
2022/05/10 04:13:57;;;;;;;7.33;6.63;;;16.70;69.50;;;-142.21;100.00;112049.66;5035405;28;20792;-80
2022/05/10 04:16:25;;;;;;;7.83;7.13;;;16.70;69.50;;;-142.21;100.00;112049.66;5035696;28;20947;-77
2022/05/10 04:18:52;;;;;;;7.20;6.50;;;16.70;70.10;;;-142.21;100.00;112049.66;5034941;28;20441;-77
2022/05/10 04:21:19;;;;;;;7.17;6.47;;;16.70;70.20;;;-142.21;100.00;112049.66;5035000;28;20531;-80
2022/05/10 04:23:47;;;;;;;7.37;6.27;;;16.80;70.10;;;-142.21;100.00;112049.66;5035155;28;20446;-79
2022/05/10 04:26:16;;;;;;;7.40;6.80;;;16.70;71.00;;;-142.21;100.00;112049.66;5035311;28;20445;-79
2022/05/10 04:28:44;;;;;;;7.17;6.53;;;16.80;70.40;;;-142.21;100.00;112049.66;5033766;28;20513;-78
2022/05/10 04:31:13;;;;;;;7.80;7.00;;;16.80;69.40;;;-142.21;100.00;112049.66;5035334;28;20469;-78
2022/05/10 04:33:41;;;;;;;8.37;6.77;;;16.80;70.20;;;-142.21;100.00;112049.66;5035204;28;20481;-79
2022/05/10 04:36:09;;;;;;;7.77;6.97;;;16.90;70.70;;;-142.21;100.00;112049.66;5034880;28;20517;-80
2022/05/10 04:38:36;;;;;;;6.90;6.20;;;16.90;70.00;;;-142.21;100.00;112049.66;5034975;28;20976;-79
2022/05/10 04:43:49;;;;;;;7.50;6.80;;;17.00;70.90;;;-142.21;100.00;112049.66;5034885;28;20510;-79
2022/05/10 04:46:18;;;;;;;8.40;7.33;;;17.00;70.30;;;-142.21;100.00;112049.66;5034913;28;20504;-78
2022/05/10 04:48:45;;;;;;;8.47;7.67;;;17.10;70.70;;;-142.21;100.00;112049.66;5034573;28;20942;-80
2022/05/10 04:51:12;;;;;;;7.13;6.30;;;17.20;70.20;;;-142.21;100.00;112049.66;5034643;28;20449;-80
2022/05/10 04:53:39;;;;;;;7.50;6.83;;;17.20;69.60;;;-142.21;100.00;112049.66;5035343;28;20517;-79
2022/05/10 04:56:07;;;;;;;8.10;7.30;;;17.30;69.70;;;-142.21;100.00;112049.66;5034226;28;20840;-79
2022/05/10 04:58:35;;;;;;;8.40;7.37;;;17.30;70.60;;;-142.21;100.00;112049.66;5034774;28;20976;-78
2022/05/10 05:01:13;;;;;;;7.80;7.10;;;17.30;70.80;;;-142.21;100.00;112049.66;5041445;28;20542;-78
2022/05/10 05:03:46;;;;;;;7.47;6.77;;;17.20;70.60;;;-142.21;100.00;112049.66;5052490;28;20487;-79
2022/05/10 05:06:14;;;;;;;7.93;7.23;;;17.40;70.50;;;-142.21;100.00;112049.66;5054032;28;20468;-78
2022/05/10 05:08:41;;;;;;;7.60;6.90;;;17.50;69.90;;;-142.21;100.00;112049.66;5053940;28;20451;-78
2022/05/10 05:11:09;;;;;;;8.23;7.53;;;17.50;70.40;;;-142.21;100.00;112049.66;5053318;28;20535;-80
2022/05/10 05:13:37;;;;;;;7.90;7.13;;;17.60;69.70;;;-142.21;100.00;112049.66;5053743;28;20510;-80
2022/05/10 05:16:06;;;;;;;8.00;6.90;;;17.70;70.20;;;-142.21;100.00;112049.66;5053360;28;20449;-79
2022/05/10 05:18:34;;;;;;;9.00;8.13;;;17.70;70.70;;;-142.21;100.00;112049.66;5061348;28;20455;-79
2022/05/10 05:21:02;;;;;;;7.90;7.20;;;17.90;70.20;;;-142.21;100.00;112049.66;5065393;28;20541;-79
2022/05/10 05:23:30;;;;;;;8.73;7.83;;;18.00;70.30;;;-142.21;100.00;112049.66;5065592;28;20536;-78
2022/05/10 05:25:57;;;;;;;7.90;7.10;;;18.00;70.30;;;-142.21;100.00;112049.66;5050646;28;20456;-79
2022/05/10 05:28:24;;;;;;;7.90;7.20;;;18.10;70.00;;;-142.21;100.00;112049.66;5065365;28;20513;-78
2022/05/10 05:30:52;;;;;;;8.67;7.87;;;18.20;68.60;;;-142.21;100.00;112049.66;5065192;28;20455;-78
2022/05/10 05:33:20;;;;;;;8.60;7.83;;;18.40;67.70;;;-142.21;100.00;112049.66;5057214;28;20547;-78
2022/05/10 05:35:48;;;;;;;8.17;7.43;;;18.50;68.60;;;-142.21;100.00;112049.66;5053103;28;20480;-78
2022/05/10 05:38:17;;;;;;;7.73;7.03;;;18.60;67.30;;;-142.21;100.00;112049.66;5053425;28;20452;-81
2022/05/10 05:40:44;;;;;;;7.77;7.07;;;18.70;66.00;;;-142.21;100.00;112049.66;5053259;28;20594;-79
2022/05/10 05:43:18;;;;;;;8.30;7.27;;;18.80;66.00;;;-142.21;100.00;112049.66;5052511;28;20483;-79
2022/05/10 05:45:46;;;;;;;8.43;7.63;;;18.90;66.10;;;-142.21;100.00;112049.66;5053364;28;20504;-78
2022/05/10 05:48:13;;;;;;;8.07;7.37;;;18.90;66.70;;;-142.21;100.00;112049.66;5067495;28;20456;-80
2022/05/10 05:50:41;;;;;;;8.37;7.57;;;19.00;68.10;;;-142.21;100.00;112049.66;5052949;28;20452;-80
2022/05/10 05:53:08;;;;;;;9.53;8.63;;;19.10;67.30;;;-142.21;100.00;112049.66;5052590;28;20537;-79
2022/05/10 05:55:38;;;;;;;7.60;6.93;;;19.20;68.40;;;-142.21;100.00;112049.66;5052772;28;20452;-78
2022/05/10 05:58:05;;;;;;;8.60;7.83;;;19.40;66.70;;;-142.21;100.00;112049.66;5052433;28;20523;-79
2022/05/10 06:00:32;;;;;;;8.93;8.07;;;19.50;67.90;;;-142.21;100.00;112049.66;5053170;28;21031;-78
2022/05/10 06:03:00;;;;;;;8.30;7.50;;;19.60;68.00;;;-142.21;100.00;112049.66;5052006;28;20527;-79
2022/05/10 06:05:27;;;;;;;8.77;7.93;;;19.70;66.40;;;-142.21;100.00;112049.66;5053061;28;20479;-79
2022/05/10 06:07:55;;;;;;;8.37;7.57;;;19.80;66.30;;;-142.21;100.00;112049.66;5052315;28;20932;-79
2022/05/10 06:10:22;;;;;;;8.03;7.33;;;19.90;65.40;;;-142.21;100.00;112049.66;5053054;28;20827;-80
2022/05/10 06:12:51;;;;;;;9.97;7.60;;;20.00;66.50;;;-142.21;100.00;112049.66;5052070;28;20521;-81
2022/05/10 06:15:20;;;;;;;8.10;7.40;;;20.10;64.70;;;-142.21;100.00;112049.66;5053015;28;20528;-77
2022/05/10 06:17:49;;;;;;;8.80;7.80;;;20.10;64.50;;;-142.21;100.00;112049.66;5052356;28;20535;-76
2022/05/10 06:20:21;;;;;;;9.00;7.30;;;20.20;64.10;;;-142.21;100.00;112049.66;5051744;28;20987;-79
2022/05/10 06:22:49;;;;;;;10.00;7.53;;;20.30;63.90;;;-142.21;100.00;112049.66;5052699;28;20193;-77
2022/05/10 06:25:20;;;;;;;8.27;7.57;;;20.30;63.90;;;-142.21;100.00;112049.66;5052543;28;20197;-79
2022/05/10 06:27:48;;;;;;;8.20;7.50;;;20.40;64.50;;;-142.21;100.00;112049.66;5051986;28;20896;-78
2022/05/10 06:30:18;;;;;;;8.33;7.43;;;20.50;63.60;;;-142.21;100.00;112049.66;5052350;28;20295;-79
2022/05/10 06:32:46;;;;;;;9.33;7.27;;;20.60;63.70;;;-142.21;100.00;112049.66;5052405;28;20216;-77
2022/05/10 06:35:14;;;;;;;7.90;7.20;;;20.70;62.80;;;-142.21;100.00;112049.66;5052391;28;20475;-78
2022/05/10 06:40:26;;;;;;;7.67;6.87;;;21.00;61.90;;;-142.21;100.00;112049.66;5052400;28;20229;-78
2022/05/10 06:42:53;;;;;;;8.17;7.47;;;21.20;61.60;;;-142.21;100.00;112049.66;5051907;28;20198;-77
2022/05/10 06:45:22;;;;;;;7.07;6.37;;;22.10;60.40;;;-142.21;98.76;112049.66;5052310;28;20258;-78
2022/05/10 06:47:49;;;;;;;6.83;6.23;;;24.30;56.10;;;-142.21;98.52;112049.66;5051708;28;20252;-79
2022/05/10 06:50:22;;;;;;;6.50;5.87;;;26.20;52.30;;;-142.21;99.65;112049.66;5052276;28;20206;-79
2022/05/10 06:52:51;;;;;;;6.80;6.20;;;28.50;49.50;;;-142.21;96.57;112049.66;5052203;28;20691;-77
2022/05/10 06:55:19;;;;;;;7.87;5.70;;;30.20;45.70;;;-142.21;99.54;112049.66;5051879;28;20220;-78
2022/05/10 06:57:46;;;;;;;6.13;5.53;;;30.90;44.90;;;-142.21;94.34;112049.66;5052339;28;20232;-77
2022/05/10 07:00:16;;;;;;;5.83;5.30;;;31.80;42.40;;;-142.21;90.33;112049.66;5051226;28;20268;-77
2022/05/10 07:02:45;;;;;;;7.17;6.47;;;31.50;42.00;;;-142.21;89.26;112049.66;5051755;28;20194;-80
2022/05/10 07:05:15;;;;;;;6.70;5.87;;;31.10;42.20;;;-142.21;88.13;112049.66;5051970;28;20659;-77
2022/05/10 07:07:43;;;;;;;7.20;5.40;;;31.60;41.40;;;-142.21;89.53;112049.66;5052169;28;20209;-76
2022/05/10 07:10:12;;;;;;;7.10;5.53;;;32.30;41.30;;;-142.21;88.75;112049.66;5051170;28;20298;-79
2022/05/10 07:12:42;;;;;;;10.77;5.57;;;31.50;41.80;;;-142.21;86.93;112049.66;5052229;28;20194;-80
2022/05/10 07:15:14;;;;;;;8.23;6.23;;;29.50;43.50;;;-142.21;92.44;112049.66;5051313;28;20298;-79
2022/05/10 07:17:41;;;;;;;6.73;6.13;;;28.40;46.60;;;-142.21;88.78;112049.66;5050165;28;20627;-81
2022/05/10 07:20:14;;;;;;;6.07;5.50;;;27.60;47.30;;;-142.21;87.14;112049.66;5051481;28;20216;-76
2022/05/10 07:22:42;;;;;;;8.17;5.97;;;26.70;48.60;;;-142.21;87.28;112049.66;5051785;28;20294;-80
2022/05/10 07:25:13;;;;;;;6.53;6.00;;;26.30;49.90;;;-142.21;86.07;112049.66;5051348;28;20209;-78
2022/05/10 07:27:41;;;;;;;8.27;6.50;;;26.10;49.80;;;-142.21;85.09;112049.66;5052039;28;20285;-77
2022/05/10 07:30:11;;;;;;;6.27;5.67;;;26.00;49.40;;;-142.21;88.02;112049.66;5051219;28;20209;-79
2022/05/10 07:32:38;;;;;;;6.63;5.87;;;25.60;50.60;;;-142.21;90.32;112049.66;5051920;28;20201;-78
2022/05/10 07:35:09;;;;;;;8.87;6.20;;;25.40;51.60;;;-142.21;90.55;112049.66;5051020;28;20239;-78
2022/05/10 07:37:38;;;;;;;7.03;6.43;;;25.20;52.10;;;-142.21;87.94;112049.66;5051860;28;20272;-80
2022/05/10 07:40:07;;;;;;;7.00;6.30;;;24.90;52.00;;;-142.21;86.73;112049.66;5051345;28;20219;-80
2022/05/10 07:42:39;;;;;;;6.40;5.80;;;24.80;52.40;;;-142.21;87.24;112049.66;5053086;28;20575;-79
2022/05/10 07:45:11;;;;;;;6.47;5.97;;;24.60;53.00;;;-142.21;85.92;112049.66;5054783;28;20263;-77
2022/05/10 07:47:43;;;;;;;6.90;6.30;;;24.70;52.90;;;-142.21;86.49;112049.66;5055473;28;20231;-78
2022/05/10 07:50:12;;;;;;;7.23;6.53;;;24.80;52.90;;;-142.21;84.25;112049.66;5055396;28;20192;-78
2022/05/10 07:52:41;;;;;;;6.50;5.90;;;24.50;52.60;;;-142.21;85.29;112049.66;5054998;28;20201;-79
2022/05/10 07:55:12;;;;;;;7.30;6.60;;;24.50;53.50;;;-142.21;86.35;112049.66;5055057;28;20216;-76
2022/05/10 07:57:39;;;;;;;6.97;5.97;;;24.50;54.60;;;-142.21;80.54;112049.66;5055737;28;20204;-78
2022/05/10 08:00:09;;;;;;;6.40;5.80;;;24.50;52.80;;;-142.21;83.61;112049.66;5054980;28;20216;-77
2022/05/10 08:02:36;;;;;;;7.50;6.27;;;24.70;53.70;;;-142.21;77.04;112049.66;5055152;28;20572;-78
2022/05/10 08:05:05;;;;;;;8.33;6.30;;;24.70;53.00;;;-142.21;77.44;112049.66;5055003;28;20545;-78
2022/05/10 08:07:37;;;;;;;6.77;6.00;;;24.80;53.40;;;-142.21;78.44;112049.66;5055171;28;20568;-79
2022/05/10 08:10:06;;;;;;;8.33;6.27;;;24.90;54.00;;;-142.21;75.91;112049.66;5055165;28;20196;-78
2022/05/10 08:12:33;;;;;;;8.53;6.20;;;24.90;53.10;;;-142.21;78.90;112049.66;5055348;28;20236;-80
2022/05/10 08:15:00;;;;;;;7.27;6.57;;;24.90;53.30;;;-142.21;78.28;112049.66;5054555;28;20215;-77
2022/05/10 08:17:27;;;;;;;7.30;6.00;;;24.90;53.00;;;-142.21;82.91;112049.66;5054724;28;20255;-80
2022/05/10 08:19:55;;;;;;;9.80;6.37;;;24.90;54.30;;;-142.21;83.47;112049.66;5054354;28;20280;-80
2022/05/10 08:22:22;;;;;;;7.17;5.93;;;24.80;54.00;;;-142.21;79.33;112049.66;5054282;28;20221;-79
2022/05/10 08:24:50;;;;;;;7.70;5.83;;;24.70;53.40;;;-142.21;79.40;112049.66;5049656;28;20338;-80
2022/05/10 08:27:18;;;;;;;7.07;6.00;;;24.60;53.60;;;-142.21;84.83;112049.66;5054420;28;20705;-78
2022/05/10 08:29:45;;;;;;;8.17;5.77;;;24.70;54.60;;;-142.21;80.85;112049.66;5054879;28;20282;-79
2022/05/10 08:32:12;;;;;;;8.33;6.27;;;24.60;54.10;;;-142.21;77.37;112049.66;5054367;28;20206;-79
2022/05/10 08:34:46;;;;;;;6.93;6.23;;;24.70;53.40;;;-142.21;76.38;112049.66;5055066;28;20205;-79
2022/05/10 08:37:13;;;;;;;6.40;5.83;;;24.50;53.30;;;-142.21;73.85;112049.66;5054467;28;20235;-78
2022/05/10 08:39:41;;;;;;;7.30;5.77;;;24.70;54.80;;;-142.21;75.01;112049.66;5051668;28;20205;-76
2022/05/10 08:42:21;;;;;;;6.57;5.93;;;24.90;55.00;;;-142.21;71.38;112049.66;5035058;28;20226;-81
2022/05/10 08:44:58;;;;;;;9.60;5.77;;;25.10;54.60;;;-142.21;70.98;112049.66;5045329;28;20321;-77
2022/05/10 08:47:28;;;;;;;7.00;6.30;;;25.30;53.90;;;-142.21;65.69;112049.66;5055326;28;20224;-79
2022/05/10 08:50:01;;;;;;;6.60;5.67;;;25.30;53.30;;;-142.21;67.92;112049.66;5049605;28;20194;-80
2022/05/10 08:52:33;;;;;;;8.17;6.50;;;25.40;53.60;;;-142.21;61.88;112049.66;5049866;28;20285;-79
2022/05/10 08:55:01;;;;;;;6.60;6.00;;;25.70;53.80;;;-142.21;49.34;112049.66;5049218;28;20259;-77
2022/05/10 08:57:47;;;;;;;6.97;5.73;;;26.40;51.60;;;-142.21;51.02;112049.66;5054020;28;20190;-78
2022/05/10 09:00:28;;;;;;;7.30;5.77;;;27.20;52.20;;;-142.21;50.68;112049.66;5054093;28;20613;-77
2022/05/10 09:02:59;;;;;;;6.93;5.50;;;28.00;50.70;;;-142.21;50.26;112049.66;5054815;28;20207;-76
2022/05/10 09:05:37;;;;;;;5.87;5.33;;;28.90;48.50;;;-142.21;54.57;112049.66;5040991;28;20651;-75
2022/05/10 09:08:18;;;;;;;5.97;5.37;;;29.40;48.50;;;-142.21;57.73;112049.66;5054115;28;20591;-76
2022/05/10 09:10:52;;;;;;;5.67;5.00;;;30.10;47.00;;;-142.21;51.79;112049.66;5054384;28;20210;-76
2022/05/10 09:13:23;;;;;;;5.47;5.07;;;29.50;46.00;;;-142.21;50.76;112049.66;5049515;28;20227;-77
2022/05/10 09:15:56;;;;;;;5.97;5.43;;;29.00;45.60;;;-142.21;51.54;112049.66;5049729;28;20199;-76
2022/05/10 09:18:28;;;;;;;8.00;5.13;;;28.80;46.40;;;-142.21;53.06;112049.66;5034248;28;20200;-76
2022/05/10 09:21:09;;;;;;;5.53;5.03;;;28.60;46.70;;;-142.21;53.81;112049.66;5034015;28;20300;-75
2022/05/10 09:23:50;;;;;;;5.60;5.10;;;28.50;46.70;;;-142.21;55.32;112049.66;5047798;28;20295;-75
2022/05/10 09:26:18;;;;;;;6.23;5.53;;;28.20;47.70;;;-142.21;53.75;112049.66;5034717;28;20230;-76
2022/05/10 09:29:02;;;;;;;6.50;5.23;;;28.30;47.60;;;-142.21;53.09;112049.66;5049593;28;20241;-76
2022/05/10 09:37:25;;;;;;;5.43;4.97;;;28.10;47.10;;;-142.21;51.38;112049.66;5053118;28;20206;-76
2022/05/10 09:40:08;;;;;;;6.57;5.40;;;28.00;46.70;;;-142.21;55.62;112049.66;5053914;28;20269;-77
2022/05/10 09:42:40;;;;;;;8.30;5.87;;;28.00;48.10;;;-142.21;53.75;112049.66;5049482;28;20210;-76
2022/05/10 09:45:16;;;;;;;5.90;5.50;;;28.10;47.60;;;-142.21;50.63;112049.66;5032618;28;20300;-75
2022/05/10 09:47:59;;;;;;;5.47;5.07;;;28.10;46.70;;;-142.21;51.98;112049.66;5048973;28;20199;-76
2022/05/10 09:50:34;;;;;;;7.33;5.23;;;28.00;47.20;;;-142.21;50.87;112049.66;5032735;28;20191;-76
2022/05/10 09:53:18;;;;;;;5.50;5.00;;;28.00;47.50;;;-142.21;48.40;112049.66;5050391;28;20186;-75
2022/05/10 09:55:58;;;;;;;6.03;4.53;;;28.00;46.00;;;-142.21;50.58;112049.66;5052617;28;20717;-77
2022/05/10 09:58:31;;;;;;;6.27;5.10;;;28.10;47.30;;;-142.21;52.64;112049.66;5041849;28;20259;-75
2022/05/10 10:01:04;;;;;;;6.10;5.50;;;28.20;48.40;;;-142.21;49.87;112049.66;5052158;28;20736;-78
2022/05/10 10:03:37;;;;;;;5.67;5.17;;;28.50;47.50;;;-142.21;48.00;112049.66;5052483;28;20223;-75
2022/05/10 10:06:18;;;;;;;5.80;5.30;;;28.50;46.70;;;-142.21;46.54;112049.66;5049991;28;20249;-75
2022/05/10 10:08:49;;;;;;;5.07;4.67;;;28.60;45.30;;;-142.21;47.98;112049.66;5051286;28;20244;-74
2022/05/10 10:11:29;;;;;;;6.30;5.10;;;28.70;47.30;;;-142.21;46.75;112049.66;5050923;28;20197;-76
2022/05/10 10:13:59;;;;;;;5.60;5.10;;;28.70;45.60;;;-142.21;44.75;112049.66;5052181;28;20615;-76
2022/05/10 10:16:36;;;;;;;5.27;4.87;;;28.80;45.30;;;-142.21;45.61;112049.66;5052576;28;20296;-73
2022/05/10 10:19:11;;;;;;;5.80;4.83;;;28.80;45.40;;;-142.21;45.50;112049.66;5051483;28;20196;-75
2022/05/10 10:21:47;;;;;;;5.60;5.10;;;28.80;45.50;;;-142.21;45.46;112049.66;5049678;28;20224;-75
2022/05/10 10:24:24;;;;;;;5.17;4.33;;;28.90;45.90;;;-142.21;45.20;112049.66;5045028;28;20211;-75
2022/05/10 10:26:58;;;;;;;4.97;4.17;;;29.10;45.30;;;-142.21;44.51;112049.66;5041865;28;20220;-75
2022/05/10 10:29:38;;;;;;;4.57;4.17;;;29.30;45.20;;;-142.21;40.71;112049.66;5050140;28;20222;-76
2022/05/10 10:32:17;;;;;;;5.97;4.67;;;29.40;44.20;;;-142.21;43.63;112049.66;5039932;28;20189;-78